EW8555 Weather Reports


time (UTC)temp
C
wind
direction
speed
KPH
gust
KPH
rain 1hr
cm
rain 24hr
cm
rain mn
cm
humidity
%
barometer
mb
20200226004530 3 260 3.2 9.7 0.15 0.18 0.15 91 992.1
20200226003031 3 226 3.2 12.9 0.13 0.15 0.13 89 992.1
20200226001543 3 306 1.6 16.1 0.05 0.05 0.05 87 992.2
20200226000113 4 217 12.9 30.6 0.03 0.05 0.03 86 992.1
20200225234521 4 188 14.5 27.4 0.00 0.03 0.00 82 991.7
20200225233004 3 218 8.0 24.1 0.00 0.03 0.00 80 991.5
20200225231747 3 213 8.0 16.1 0.00 0.03 0.00 82 991.4
20200225230209 3 184 9.7 19.3 0.00 0.03 0.00 79 991.7
20200225224644 3 197 9.7 19.3 0.00 0.05 0.03 79 991.9
20200225223131 3 219 8.0 19.3 0.00 0.05 0.03 78 992.0
20200225221620 3 187 8.0 19.3 0.00 0.05 0.03 77 992.0
20200225220103 4 215 6.4 16.1 0.00 0.05 0.03 77 992.0
20200225214649 4 201 9.7 16.1 0.00 0.05 0.03 76 992.3
20200225213141 4 229 3.2 12.9 0.00 0.05 0.03 76 992.7
20200225211548 4 163 4.8 16.1 0.00 0.05 0.03 76 992.9
20200225210103 4 209 9.7 19.3 0.00 0.05 0.03 76 993.1
20200225204549 5 233 12.9 19.3 0.00 0.08 0.03 77 993.3
20200225203043 5 198 8.0 17.7 0.00 0.08 0.03 78 993.3
20200225201604 4 227 11.3 17.7 0.00 0.08 0.03 79 993.3
20200225200037 5 240 9.7 19.3 0.00 0.08 0.03 79 993.4
20200225194559 4 193 9.7 16.1 0.00 0.15 0.03 78 993.6
20200225193025 5 213 4.8 11.3 0.00 0.15 0.03 77 993.7
20200225191529 5 205 6.4 12.9 0.00 0.15 0.03 75 993.9
20200225190013 6 207 8.0 14.5 0.00 0.15 0.03 73 994.0
20200225184511 6 205 6.4 12.9 0.00 0.15 0.03 78 994.1
20200225181704 6 205 3.2 8.0 0.00 0.15 0.03 71 994.4
20200225180220 7 249 4.8 12.9 0.00 0.15 0.03 67 994.6
20200225174721 7 245 3.2 12.9 0.00 0.15 0.03 65 994.5
20200225173202 7 224 4.8 12.9 0.00 0.15 0.03 78 994.5
20200225171740 7 231 3.2 17.7 0.00 0.15 0.03 65 994.7
20200225170132 7 188 1.6 14.5 0.00 0.15 0.03 64 994.6
20200225164720 8 267 9.7 25.7 0.00 0.15 0.03 61 994.6
20200225163050 8 324 11.3 25.7 0.00 0.15 0.03 65 994.6
20200225161731 8 323 8.0 24.1 0.00 0.15 0.03 60 994.5
20200225160104 9 269 12.9 32.2 0.00 0.15 0.03 61 994.5
20200225154628 9 287 8.0 27.4 0.00 0.15 0.03 58 994.1
20200225153121 9 309 8.0 29.0 0.00 0.15 0.03 59 994.1
20200225151600 10 299 9.7 29.0 0.00 0.15 0.03 58 994.1
20200225150111 10 217 9.7 27.4 0.00 0.15 0.03 61 994.2
20200225144621 10 248 4.8 27.4 0.00 0.15 0.03 62 994.3
20200225143111 9 351 8.0 40.2 0.00 0.15 0.03 68 994.5
20200225141609 8 303 8.0 27.4 0.00 0.15 0.03 70 994.7
20200225140119 10 286 12.9 30.6 0.00 0.15 0.03 62 994.6
20200225134610 10 279 9.7 20.9 0.00 0.15 0.03 60 994.5
20200225133217 10 252 9.7 25.7 0.00 0.15 0.03 60 994.5
20200225131545 9 320 8.0 29.0 0.00 0.15 0.03 62 994.8
20200225130048 9 288 9.7 24.1 0.00 0.15 0.03 65 995.0
20200225124619 9 242 11.3 29.0 0.00 0.15 0.03 66 995.1
20200225123106 9 298 14.5 33.8 0.00 0.15 0.03 65 995.3
20200225121545 9 288 17.7 33.8 0.00 0.15 0.03 66 995.4
20200225120032 9 296 4.8 29.0 0.00 0.15 0.03 72 995.4
20200225114554 9 311 19.3 38.6 0.00 0.15 0.03 71 995.6
20200225113024 10 292 6.4 17.7 0.00 0.15 0.03 78 995.4
20200225111709 9 292 12.9 22.5 0.00 0.15 0.03 80 995.6
20200225110056 8 293 8.0 20.9 0.00 0.15 0.03 82 995.5
20200225104519 9 325 4.8 20.9 0.00 0.15 0.03 81 995.7
20200225103036 10 315 8.0 14.5 0.00 0.15 0.03 79 995.6
20200225101538 10 290 9.7 17.7 0.00 0.15 0.03 77 995.7
20200225100022 11 238 6.4 20.9 0.00 0.15 0.03 86 995.8
20200225094519 10 253 3.2 12.9 0.00 0.18 0.03 78 996.1
20200225093037 10 306 6.4 19.3 0.00 0.18 0.03 78 996.2
20200225090017 10 273 6.4 22.5 0.00 0.18 0.03 82 996.6
20200225084502 10 239 8.0 19.3 0.00 0.18 0.03 84 996.8
20200225083010 9 221 4.8 16.1 0.00 0.18 0.03 82 996.8
20200225081739 9 319 11.3 27.4 0.00 0.18 0.03 83 997.0
20200225080141 9 271 11.3 32.2 0.00 0.18 0.03 83 997.1
20200225074752 9 323 3.2 17.7 0.00 0.18 0.03 89 997.2
20200225073128 9 326 3.2 11.3 0.00 0.18 0.03 89 997.1
20200225071638 10 10 4.8 14.5 0.00 0.18 0.03 91 997.0
20200225070129 9 215 6.4 16.1 0.00 0.18 0.03 91 996.9
20200225064644 9 186 6.4 17.7 0.00 0.18 0.03 92 997.0
20200225063202 9 242 8.0 22.5 0.00 0.18 0.03 90 996.9
20200225061814 9 249 12.9 27.4 0.00 0.18 0.03 91 997.0
20200225060134 9 172 12.9 25.7 0.00 0.18 0.03 90 996.8
20200225054559 9 163 11.3 22.5 0.00 0.18 0.03 93 997.0
20200225053218 8 263 12.9 24.1 0.00 0.18 0.03 89 997.0
20200225051714 9 164 4.8 19.3 0.00 0.18 0.03 90 997.1
20200225050141 9 248 11.3 20.9 0.00 0.18 0.03 90 997.1
20200225044618 10 229 8.0 25.7 0.00 0.18 0.03 92 997.4
20200225043125 10 217 11.3 24.1 0.00 0.18 0.03 89 997.4
20200225041557 10 232 9.7 25.7 0.00 0.18 0.03 90 997.5
20200225040210 9 234 8.0 25.7 0.00 0.18 0.03 88 997.4
20200225034628 10 178 9.7 22.5 0.00 0.18 0.03 89 997.5
20200225033046 9 251 6.4 19.3 0.00 0.18 0.03 89 997.7
20200225031611 9 229 8.0 22.5 0.00 0.18 0.03 90 997.8
20200225030041 10 157 8.0 17.7 0.03 0.18 0.03 93 997.9
20200225024631 10 232 9.7 25.7 0.03 0.18 0.03 92 997.9
20200225023042 9 155 8.0 20.9 0.03 0.18 0.03 89 997.9
20200225021609 9 238 9.7 22.5 0.03 0.18 0.03 88 998.0
20200225020117 9 213 11.3 19.3 0.00 0.15 0.00 89 998.1
20200225014540 9 186 11.3 22.5 0.00 0.15 0.00 89 998.0
20200225013258 9 323 11.3 25.7 0.00 0.15 0.00 89 998.3
20200225011632 9 192 11.3 25.7 0.00 0.15 0.00 90 998.5
20200225010015 8 234 9.7 27.4 0.00 0.15 0.00 91 998.7